Welcome to this demonstration website - Welkom op de demo website - Bienvenue sur ce site de démonstration - Willkommen auf dieser Demonstration Website


my webcam  My webcam


thunder radar more information blitzortung!


rain radar more information rain snow radar


visit our other weather sites:

Template documentation
and downloads

And another site



nearby metar reports

   
EBAW - Antwerp
updated: 18-02-2018 03:20
mist, clear  
mist, clear  
   wind: ese 3.7 km/h
wind: ese 3.7 km/h
temperature: -5°C
dew point: -6°C
humidity: 93%
barometer: 1025 hPa
clouds: Clear
visibility: 1 km
cloud details: clear m
EBAW 180220Z AUTO 11002KT 1000 R11/1500U R29/P2000N BR NCD M05/M06 Q1025
EBLG - Liège
updated: 18-02-2018 03:20
clear  
clear  
   wind: sse 14.8 km/h
wind: sse 14.8 km/h
temperature: 1°C
wind chill: -3°C
dew point: -2°C
humidity: 81%
barometer: 1025 hPa
visibility: More than 10 km
cloud details: clear m
EBLG 180220Z 16008KT CAVOK 01/M02 Q1025 NOSIG
EBCV - Mons/Bergen
updated: 18-02-2018 03:25
mist, clear  
mist, clear  
   wind: varies 3.7 km/h
wind: varies 3.7 km/h
temperature: -2°C
dew point: -2°C
humidity: 100%
barometer: 1025 hPa
clouds: Clear
visibility: 2 km
cloud details: clear m
EBCV 180225Z AUTO VRB02KT 2200 BR NCD M02/M02 Q1025 YLO
EHBK - Maastricht
updated: 18-02-2018 03:25
clear  
clear  
   wind: south 7.4 km/h
wind: south 7.4 km/h
temperature: -1°C
wind chill: -4°C
dew point: -3°C
humidity: 86%
barometer: 1025 hPa
clouds: Clear
visibility: More than 10 km
cloud details: clear m
EHBK 180225Z AUTO 18004KT 9999 NCD M01/M03 Q1025
ELLX - Luxemburg
updated: 18-02-2018 03:20
clear  
clear  
   wind: ne 5.6 km/h
wind: ne 5.6 km/h
temperature: -2°C
wind chill: -4°C
dew point: -2°C
humidity: 100%
barometer: 1025 hPa
clouds: Clear
visibility: 6 km
cloud details: clear m
ELLX 180220Z AUTO 04003KT 6000 NCD M02/M02 Q1025 NOSIG
EBOS - Oostende
updated: 18-02-2018 03:20
Freezing, fog, partly cloudy  
Freezing, fog, partly cloudy  
   wind: varies 1.9 km/h
wind: varies 1.9 km/h
temperature: -3°C
dew point: -4°C
humidity: 93%
barometer: 1024 hPa
clouds: Partly Cloudy
visibility: 0 km
cloud details: partly cloudy m
EBOS 180220Z VRB01KT 0300 R08/0375N R26/0800N FZFG NSC M03/M04 Q1024 NOSIG

script developed by  Saratoga-weather.org adapted for the template by  Weerstation Leuven

you find our weather info also at:

Het Weer Aktueel

UK Metoffice

European Weather Network

WeatherCloud

Weather Underground

benelux weather network

AWEKAS

WeatherlinkIP

Citizen Weather Observer Program (CWOP)

HAMweather, WeatherForYou, PWS Weather

equipment we use:

weather-station
Davis VP2+
Meteostick connected

weather-program
Meteobridge

weather-server
MeteobridgePro

Davis VP2+<br />Meteostick connected

Meteobridge

MeteobridgePro